^^
Meteo Knjazevac Station Historical Data
Daily Summary for January 11, 2021 Units:  Metric    English   Both
Daily Weekly Monthly Yearly Custom
  High: Low: Average:
Temperature: 1.4 °C -0.5 °C 0.4 °C
Dew Point: 1.1 °C -0.6 °C 0.2 °C
Humidity: 99% 98% 99%
Wind Speed: 3.2km/h 0km/h 1.3km/h
Wind Gust: 6.4km/h - -
Wind- - WSW
Pressure: 1033.1 hPa 1032.4 hPa -
Precipitation: 0 mm    
Historical Graphs
 
 
Tabular Data for January 11, 2021
Time Temperature Dew Point Pressure Wind Wind Speed Wind Gust Humidity Rainfall Rate (Hourly) solar Conditions
00:00 1.4 °C 1.1 °C 1033.1 hPa ENE 1.6 km/h 4.8 km/h 98% 0 mm 0 W/m2
00:10 1.2 °C 0.9 °C 1033.1 hPa SW 1.6 km/h 3.2 km/h 98% 0 mm 0 W/m2
00:20 1.1 °C 0.8 °C 1033.1 hPa West 1.6 km/h 3.2 km/h 98% 0 mm 0 W/m2
00:30 1.1 °C 0.9 °C 1033.1 hPa Calm   4.8 km/h 99% 0 mm 0 W/m2
00:40 1 °C 0.8 °C 1033.1 hPa Calm   4.8 km/h 99% 0 mm 0 W/m2
00:50 0.9 °C 0.8 °C 1033.1 hPa Calm   3.2 km/h 99% 0 mm 0 W/m2
01:00 0.8 °C 0.7 °C 1033.1 hPa ESE 3.2 km/h 6.4 km/h 99% 0 mm 0 W/m2
01:10 0.8 °C 0.7 °C 1032.7 hPa Calm   6.4 km/h 99% 0 mm 0 W/m2
01:20 0.8 °C 0.7 °C 1032.7 hPa WNW 3.2 km/h 6.4 km/h 99% 0 mm 0 W/m2
01:30 0.6 °C 0.5 °C 1032.7 hPa West 1.6 km/h 4.8 km/h 99% 0 mm 0 W/m2
01:40 0.6 °C 0.4 °C 1032.7 hPa Calm   3.2 km/h 99% 0 mm 0 W/m2
01:50 0.4 °C 0.3 °C 1032.7 hPa Calm   3.2 km/h 99% 0 mm 0 W/m2
02:00 0.3 °C 0.2 °C 1032.7 hPa Calm   3.2 km/h 99% 0 mm 0 W/m2
02:10 0.2 °C 0.1 °C 1032.7 hPa East 1.6 km/h 4.8 km/h 99% 0 mm 0 W/m2
02:20 0.1 °C -0.1 °C 1032.7 hPa WNW 3.2 km/h 4.8 km/h 99% 0 mm 0 W/m2
02:30 -0.1 °C -0.2 °C 1032.4 hPa NW 1.6 km/h 4.8 km/h 99% 0 mm 0 W/m2
02:40 -0.1 °C -0.2 °C 1032.4 hPa Calm   4.8 km/h 99% 0 mm 0 W/m2
02:50 -0.3 °C -0.4 °C 1032.4 hPa Calm   3.2 km/h 99% 0 mm 0 W/m2
03:00 -0.3 °C -0.4 °C 1032.4 hPa NW 1.6 km/h 3.2 km/h 99% 0 mm 0 W/m2
03:10 -0.4 °C -0.6 °C 1032.4 hPa West 3.2 km/h 4.8 km/h 99% 0 mm 0 W/m2
03:20 -0.5 °C -0.6 °C 1032.4 hPa West 3.2 km/h 4.8 km/h 99% 0 mm 0 W/m2
03:30 -0.4 °C -0.6 °C 1032.4 hPa Calm   4.8 km/h 99% 0 mm 0 W/m2
03:40 -0.3 °C -0.4 °C 1032.4 hPa Calm   3.2 km/h 99% 0 mm 0 W/m2
03:50 -0.3 °C -0.4 °C 1032.4 hPa West 1.6 km/h 3.2 km/h 99% 0 mm 0 W/m2
Knjazevac, Serbia
Compliments of Weather Underground - 2 mb